Nearby METAR Reports

 

KPRB - Paso Robles, California, USA
Distance from station: SW 1mi, 1km
Updated: 02/08/2016 11:53am
Clear
Clear
 Wind from N
Wind: N 5 mph , 7 km/h
Temperature: 66°F , 19°C
Dew Point: 50°F , 10°C
Humidity: 56%
Barometer: 30.21 inHg , 1023 hPa
Clouds: Clear
Visibility: 10 miles , 16 km
2016/02/08 19:53 KPRB 081953Z AUTO 36004KT 10SM CLR 19/10 A3021 RMK AO2 SLP229 T01940100 TSNO
KSBP - San Luis Obispo, California, USA
Distance from station: S 30mi, 49km
Updated: 02/08/2016 11:56am
Clear
Clear
 Wind from S
Wind: S 8 mph , 13 km/h
Temperature: 84°F , 29°C
Dew Point: 37°F , 3°C
Humidity: 19%
Barometer: 30.14 inHg , 1020.7 hPa
Clouds: Clear
Visibility: 10 miles , 16 km
2016/02/08 19:56 KSBP 081956Z 18007KT 10SM CLR 29/03 A3014 RMK AO2 SLP205 T02890033
 
KSMX - Santa Maria, California, USA
Distance from station: S 54mi, 87km
Updated: 02/08/2016 12:51pm
Clear
Clear
 Wind from W
Wind: W 5 mph , 7 km/h
Temperature: 82°F , 28°C
Dew Point: 45°F , 7°C
Humidity: 26%
Barometer: 30.13 inHg , 1020.3 hPa
Clouds: Clear
Visibility: 10 miles , 16 km
2016/02/08 20:51 KSMX 082051Z 27004KT 10SM CLR 28/07 A3013 RMK AO2 SLP202 T02780067 58015
KNLC - Lemoore Nas/Reev, California, USA
Distance from station: NE 58mi, 94km
Updated: 02/08/2016 11:56am
Haze, Clear
Haze, Clear
 Wind from N
Wind: N 5 mph , 7 km/h
Temperature: 63°F , 17°C
Dew Point: 50°F , 10°C
Humidity: 64%
Barometer: 30.27 inHg , 1025.1 hPa
Summary: Haze
Clouds: Clear
Visibility: 5 miles , 8 km
2016/02/08 19:56 KNLC 081956Z 35004KT 5SM HZ CLR 17/10 A3027 RMK AO2 SLP251 RH/67 T01670100
 
KVBG - Vandenberg Afb, California, USA
Distance from station: S 65mi, 105km
Updated: 02/08/2016 11:55am
Clear
Clear
 Wind from SW
Wind: SW 8 mph , 13 km/h
Temperature: 79°F , 26°C
Dew Point: 36°F , 2°C
Humidity: 21%
Barometer: 30.16 inHg , 1021.3 hPa
Clouds: Clear
Visibility: 10 miles , 16 km
2016/02/08 19:55 KVBG 081955Z 23007KT 10SM CLR 26/02 A3016 RMK AO2A SLP214 T02640023
KLPC - Lompoc, California, USA
Distance from station: S 70mi, 113km
Updated: 02/08/2016 11:55am
Clear
Clear
 Wind from calm
Wind: Calm
Temperature: 81°F , 27°C
Dew Point: 37°F , 3°C
Humidity: 21%
Barometer: 30.16 inHg , 1021.3 hPa
Clouds: Clear
Visibility: 10 miles , 16 km
2016/02/08 19:55 KLPC 081955Z AUTO 00000KT 10SM CLR 27/03 A3016 RMK AO1
 
KHJO - Hanford, California, USA
Distance from station: NE 72mi, 116km
Updated: 02/08/2016 11:53am
Haze, Clear
Haze, Clear
 Wind from calm
Wind: Calm
Temperature: 63°F , 17°C
Dew Point: 50°F , 10°C
Humidity: 64%
Barometer: 30.28 inHg , 1025.4 hPa
Summary: Haze
Clouds: Clear
Visibility: 4 miles , 6 km
2016/02/08 19:53 KHJO 081953Z AUTO 00000KT 4SM HZ CLR 17/10 A3028 RMK AO2 SLP254 T01670100